createdAt,value
2023-03-11T00:00:07.939Z,0.00
2023-03-11T00:01:08.208Z,0.00
2023-03-11T00:02:07.096Z,0.00
2023-03-11T00:03:08.222Z,0.00
2023-03-11T00:04:07.968Z,0.00
2023-03-11T00:05:27.346Z,0.00
2023-03-11T00:06:08.052Z,0.00
2023-03-11T00:07:07.787Z,0.00
2023-03-11T00:08:08.034Z,0.00
2023-03-11T00:09:07.790Z,0.00
2023-03-11T00:10:08.047Z,0.00
2023-03-11T00:11:07.819Z,0.00
2023-03-11T00:12:08.080Z,0.00
2023-03-11T00:13:07.833Z,0.00
2023-03-11T00:14:08.072Z,0.00
2023-03-11T00:15:26.931Z,0.00
2023-03-11T00:16:08.096Z,0.00
2023-03-11T00:17:07.899Z,0.00
2023-03-11T00:18:08.119Z,0.00
2023-03-11T00:19:07.153Z,0.00
2023-03-11T00:20:07.906Z,0.00
2023-03-11T00:21:07.666Z,0.00
2023-03-11T00:22:07.899Z,0.00
2023-03-11T00:23:07.642Z,0.00
2023-03-11T00:24:07.907Z,0.00
2023-03-11T00:25:26.743Z,0.00
2023-03-11T00:26:07.941Z,0.00
2023-03-11T00:27:07.699Z,0.00
2023-03-11T00:28:07.940Z,0.00
2023-03-11T00:29:07.713Z,0.00
2023-03-11T00:30:07.937Z,0.00
2023-03-11T00:31:07.718Z,0.00
2023-03-11T00:32:07.953Z,0.00
2023-03-11T00:33:07.734Z,0.00
2023-03-11T00:34:07.970Z,0.00
2023-03-11T00:35:26.770Z,0.00
2023-03-11T00:36:07.055Z,0.00
2023-03-11T00:37:07.711Z,0.00
2023-03-11T00:38:07.460Z,0.00
2023-03-11T00:39:07.721Z,0.00
2023-03-11T00:40:07.493Z,0.00
2023-03-11T00:41:07.733Z,0.00
2023-03-11T00:42:07.518Z,0.00
2023-03-11T00:43:07.753Z,0.00
2023-03-11T00:44:07.537Z,0.00
2023-03-11T00:45:26.822Z,0.00
2023-03-11T00:46:06.933Z,0.00
2023-03-11T00:47:08.121Z,0.00
2023-03-11T00:48:07.400Z,0.00
2023-03-11T00:49:07.642Z,0.00
2023-03-11T00:50:07.390Z,0.00
2023-03-11T00:51:07.649Z,0.00
2023-03-11T00:52:07.381Z,0.00
2023-03-11T00:53:07.653Z,0.00
2023-03-11T00:54:07.414Z,0.00
2023-03-11T00:55:26.737Z,0.00
2023-03-11T00:56:07.942Z,0.00
2023-03-11T00:57:07.665Z,0.00
2023-03-11T00:58:08.528Z,0.00
2023-03-11T00:59:07.716Z,0.00
2023-03-11T01:00:07.998Z,0.00
2023-03-11T01:01:07.261Z,0.00
2023-03-11T01:02:08.035Z,0.00
2023-03-11T01:03:07.332Z,0.00
2023-03-11T01:04:06.785Z,0.00
2023-03-11T01:05:26.435Z,0.00
2023-03-11T01:06:08.639Z,0.00
2023-03-11T01:07:09.018Z,0.00
2023-03-11T01:08:07.728Z,0.00
2023-03-11T01:09:07.504Z,0.00
2023-03-11T01:10:07.750Z,0.00
2023-03-11T01:11:08.016Z,0.00
2023-03-11T01:12:07.056Z,0.00
2023-03-11T01:13:08.063Z,0.00
2023-03-11T01:14:07.718Z,0.00
2023-03-11T01:15:26.664Z,0.00
2023-03-11T01:16:07.552Z,0.00
2023-03-11T01:17:07.796Z,0.00
2023-03-11T01:18:07.587Z,0.00
2023-03-11T01:19:07.872Z,0.00
2023-03-11T01:20:08.129Z,0.00
2023-03-11T01:21:07.913Z,0.00
2023-03-11T01:22:08.185Z,0.00
2023-03-11T01:23:07.944Z,0.00
2023-03-11T01:24:07.776Z,0.00
2023-03-11T01:25:26.616Z,0.00
2023-03-11T01:26:07.811Z,0.00
2023-03-11T01:27:06.807Z,0.00
2023-03-11T01:28:07.818Z,0.00
2023-03-11T01:29:07.078Z,0.00
2023-03-11T01:30:07.882Z,0.00
2023-03-11T01:31:07.700Z,0.00
2023-03-11T01:32:07.953Z,0.00
2023-03-11T01:33:06.382Z,0.00
2023-03-11T01:34:07.998Z,0.00
2023-03-11T01:35:26.478Z,0.00
2023-03-11T01:36:08.119Z,0.00
2023-03-11T01:37:07.199Z,0.00
2023-03-11T01:38:08.069Z,0.00
2023-03-11T01:39:06.378Z,0.00
2023-03-11T01:40:08.114Z,0.00
2023-03-11T01:41:07.395Z,0.00
2023-03-11T01:42:07.551Z,0.00
2023-03-11T01:43:06.949Z,0.00
2023-03-11T01:44:08.203Z,0.00
2023-03-11T01:45:26.028Z,0.00
2023-03-11T01:46:07.713Z,0.00
2023-03-11T01:47:06.056Z,0.00
2023-03-11T01:48:07.149Z,0.00
2023-03-11T01:49:07.004Z,0.00
2023-03-11T01:50:06.780Z,0.00
2023-03-11T01:51:07.588Z,0.00
2023-03-11T01:52:08.065Z,0.00
2023-03-11T01:53:06.870Z,0.00
2023-03-11T01:54:06.946Z,0.00
2023-03-11T01:55:26.253Z,0.00
2023-03-11T01:56:07.934Z,0.00
2023-03-11T01:57:07.721Z,0.00
2023-03-11T01:58:07.957Z,0.00
2023-03-11T01:59:07.729Z,0.00
2023-03-11T02:00:07.013Z,0.00
2023-03-11T02:01:07.232Z,0.00
2023-03-11T02:02:08.093Z,0.00
2023-03-11T02:03:07.811Z,0.00
2023-03-11T02:04:08.018Z,0.00
2023-03-11T02:05:25.848Z,0.00
2023-03-11T02:06:06.047Z,0.00
2023-03-11T02:07:08.341Z,0.00
2023-03-11T02:08:06.552Z,0.00
2023-03-11T02:09:07.376Z,0.00
2023-03-11T02:10:07.202Z,0.00
2023-03-11T02:11:06.958Z,0.00
2023-03-11T02:12:07.682Z,0.00
2023-03-11T02:13:07.986Z,0.00
2023-03-11T02:14:07.212Z,0.00
2023-03-11T02:15:26.097Z,0.00
2023-03-11T02:16:07.211Z,0.00
2023-03-11T02:17:06.397Z,0.00
2023-03-11T02:18:07.260Z,0.00
2023-03-11T02:19:06.510Z,0.00
2023-03-11T02:20:07.302Z,0.00
2023-03-11T02:21:05.649Z,0.00
2023-03-11T02:22:06.842Z,0.00
2023-03-11T02:23:06.185Z,0.00
2023-03-11T02:24:07.871Z,0.00
2023-03-11T02:25:25.712Z,0.00
2023-03-11T02:26:07.395Z,0.00
2023-03-11T02:27:07.672Z,0.00
2023-03-11T02:28:06.434Z,0.00
2023-03-11T02:29:06.721Z,0.00
2023-03-11T02:30:06.479Z,0.00
2023-03-11T02:31:06.785Z,0.00
2023-03-11T02:32:06.518Z,0.00
2023-03-11T02:33:07.817Z,0.00
2023-03-11T02:34:07.552Z,0.00
2023-03-11T02:35:25.885Z,0.00
2023-03-11T02:36:07.588Z,0.00
2023-03-11T02:37:07.338Z,0.00
2023-03-11T02:38:07.581Z,0.00
2023-03-11T02:39:07.340Z,0.00
2023-03-11T02:40:06.678Z,0.00
2023-03-11T02:41:06.183Z,0.00
2023-03-11T02:42:06.425Z,0.00
2023-03-11T02:43:06.425Z,0.00
2023-03-11T02:44:06.180Z,0.00
2023-03-11T02:45:25.613Z,0.00
2023-03-11T02:46:05.652Z,0.00
2023-03-11T02:47:06.352Z,0.00
2023-03-11T02:48:06.192Z,0.00
2023-03-11T02:49:06.434Z,0.00
2023-03-11T02:50:06.193Z,0.00
2023-03-11T02:51:06.451Z,0.00
2023-03-11T02:52:06.200Z,0.00
2023-03-11T02:53:06.980Z,0.00
2023-03-11T02:54:06.269Z,0.00
2023-03-11T02:55:25.640Z,0.00
2023-03-11T02:56:05.579Z,0.00
2023-03-11T02:57:05.414Z,0.00
2023-03-11T02:58:06.077Z,0.00
2023-03-11T02:59:06.358Z,0.00
2023-03-11T03:00:05.200Z,0.00
2023-03-11T03:01:05.446Z,0.00
2023-03-11T03:02:06.121Z,0.00
2023-03-11T03:03:05.435Z,0.00
2023-03-11T03:04:05.184Z,0.00
2023-03-11T03:05:26.905Z,0.00
2023-03-11T03:06:05.191Z,0.00
2023-03-11T03:07:05.458Z,0.00
2023-03-11T03:08:05.186Z,0.00
2023-03-11T03:09:05.461Z,0.00
2023-03-11T03:10:06.177Z,0.00
2023-03-11T03:11:06.387Z,0.00
2023-03-11T03:12:05.236Z,0.00
2023-03-11T03:13:04.983Z,0.00
2023-03-11T03:14:05.240Z,0.00
2023-03-11T03:15:26.956Z,0.00
2023-03-11T03:16:05.338Z,0.00
2023-03-11T03:17:05.159Z,0.00
2023-03-11T03:18:05.382Z,0.00
2023-03-11T03:19:05.096Z,0.00
2023-03-11T03:20:05.370Z,0.00
2023-03-11T03:21:06.074Z,0.00
2023-03-11T03:22:04.928Z,0.00
2023-03-11T03:23:05.176Z,0.00
2023-03-11T03:24:05.022Z,0.00
2023-03-11T03:25:25.348Z,0.00
2023-03-11T03:26:05.059Z,0.00
2023-03-11T03:27:06.294Z,0.00
2023-03-11T03:28:05.152Z,0.00
2023-03-11T03:29:04.907Z,0.00
2023-03-11T03:30:06.132Z,0.00
2023-03-11T03:31:05.004Z,0.00
2023-03-11T03:32:05.345Z,0.00
2023-03-11T03:33:05.966Z,0.00
2023-03-11T03:34:05.285Z,0.00
2023-03-11T03:35:25.076Z,0.00
2023-03-11T03:36:04.858Z,0.00
2023-03-11T03:37:05.111Z,0.00
2023-03-11T03:38:05.860Z,0.00
2023-03-11T03:39:06.146Z,0.00
2023-03-11T03:40:05.090Z,0.00
2023-03-11T03:41:04.854Z,0.00
2023-03-11T03:42:06.106Z,0.00
2023-03-11T03:43:05.853Z,0.00
2023-03-11T03:44:05.521Z,0.00
2023-03-11T03:45:25.118Z,0.00
2023-03-11T03:46:05.687Z,0.00
2023-03-11T03:47:06.029Z,0.00
2023-03-11T03:48:04.887Z,0.00
2023-03-11T03:49:04.677Z,0.00
2023-03-11T03:50:05.017Z,0.00
2023-03-11T03:51:04.752Z,0.00
2023-03-11T03:52:05.959Z,0.00
2023-03-11T03:53:05.635Z,0.00
2023-03-11T03:54:04.613Z,0.00
2023-03-11T03:55:24.916Z,0.00
2023-03-11T03:56:05.011Z,0.00
2023-03-11T03:57:05.811Z,0.00
2023-03-11T03:58:04.688Z,0.00
2023-03-11T03:59:05.883Z,0.00
2023-03-11T04:00:04.791Z,0.00
2023-03-11T04:01:04.578Z,0.00
2023-03-11T04:02:05.835Z,0.00
2023-03-11T04:03:05.615Z,0.00
2023-03-11T04:04:05.882Z,0.00
2023-03-11T04:05:24.784Z,0.00
2023-03-11T04:06:04.486Z,0.00
2023-03-11T04:07:05.710Z,0.00
2023-03-11T04:08:04.522Z,0.00
2023-03-11T04:09:05.721Z,0.00
2023-03-11T04:10:04.594Z,0.00
2023-03-11T04:11:05.615Z,0.00
2023-03-11T04:12:04.550Z,0.00
2023-03-11T04:13:04.788Z,0.00
2023-03-11T04:14:04.535Z,0.00
2023-03-11T04:15:26.275Z,0.00
2023-03-11T04:16:04.603Z,0.00
2023-03-11T04:17:05.340Z,0.00
2023-03-11T04:18:04.610Z,0.00
2023-03-11T04:19:04.354Z,0.00
2023-03-11T04:20:04.603Z,0.00
2023-03-11T04:21:05.287Z,0.00
2023-03-11T04:22:04.623Z,0.00
2023-03-11T04:23:04.353Z,0.00
2023-03-11T04:24:04.639Z,0.00
2023-03-11T04:25:24.383Z,0.00
2023-03-11T04:26:04.710Z,0.00
2023-03-11T04:27:05.453Z,0.00
2023-03-11T04:28:04.273Z,0.00
2023-03-11T04:29:04.534Z,0.00
2023-03-11T04:30:04.296Z,0.00
2023-03-11T04:31:04.553Z,0.00
2023-03-11T04:32:04.348Z,0.00
2023-03-11T04:33:04.545Z,0.00
2023-03-11T04:34:04.299Z,0.00
2023-03-11T04:35:24.608Z,0.00
2023-03-11T04:36:04.357Z,0.00
2023-03-11T04:37:04.537Z,0.00
2023-03-11T04:38:05.123Z,0.00
2023-03-11T04:39:05.480Z,0.00
2023-03-11T04:40:05.246Z,0.00
2023-03-11T04:41:04.563Z,0.00
2023-03-11T04:42:04.311Z,0.00
2023-03-11T04:43:05.488Z,0.00
2023-03-11T04:44:05.259Z,0.00
2023-03-11T04:45:24.624Z,0.00
2023-03-11T04:46:04.521Z,0.00
2023-03-11T04:47:05.236Z,0.00
2023-03-11T04:48:04.986Z,0.00
2023-03-11T04:49:05.273Z,0.00
2023-03-11T04:50:05.017Z,0.00
2023-03-11T04:51:05.280Z,0.00
2023-03-11T04:52:05.024Z,0.00
2023-03-11T04:53:05.298Z,0.00
2023-03-11T04:54:04.367Z,0.00
2023-03-11T04:55:24.199Z,0.00
2023-03-11T04:56:04.894Z,0.00
2023-03-11T04:57:04.217Z,0.00
2023-03-11T04:58:03.980Z,0.00
2023-03-11T04:59:04.227Z,0.00
2023-03-11T05:00:03.967Z,0.00
2023-03-11T05:01:04.845Z,0.00
2023-03-11T05:02:05.438Z,0.00
2023-03-11T05:03:05.260Z,0.00
2023-03-11T05:04:05.501Z,0.00
2023-03-11T05:05:24.355Z,0.00
2023-03-11T05:06:03.772Z,0.00
2023-03-11T05:07:06.121Z,0.00
2023-03-11T05:08:05.364Z,0.00
2023-03-11T05:09:05.162Z,0.00
2023-03-11T05:10:04.667Z,0.00
2023-03-11T05:11:05.223Z,0.00
2023-03-11T05:12:04.788Z,0.00
2023-03-11T05:13:05.297Z,0.00
2023-03-11T05:14:05.560Z,0.00
2023-03-11T05:15:23.891Z,0.00
2023-03-11T05:16:05.094Z,0.00
2023-03-11T05:17:05.357Z,0.00
2023-03-11T05:18:06.124Z,0.00
2023-03-11T05:19:04.682Z,0.00
2023-03-11T05:20:05.971Z,0.00
2023-03-11T05:21:05.242Z,0.00
2023-03-11T05:22:05.521Z,0.00
2023-03-11T05:23:05.283Z,0.00
2023-03-11T05:24:05.578Z,0.00
2023-03-11T05:25:23.925Z,0.00
2023-03-11T05:26:04.634Z,0.00
2023-03-11T05:27:04.621Z,0.00
2023-03-11T05:28:05.210Z,0.00
2023-03-11T05:29:05.025Z,0.00
2023-03-11T05:30:05.380Z,0.00
2023-03-11T05:31:05.212Z,0.00
2023-03-11T05:32:05.450Z,0.00
2023-03-11T05:33:04.828Z,0.00
2023-03-11T05:34:04.269Z,0.00
2023-03-11T05:35:23.860Z,0.00
2023-03-11T05:36:05.124Z,0.00
2023-03-11T05:37:05.331Z,0.00
2023-03-11T05:38:05.177Z,0.00
2023-03-11T05:39:05.444Z,0.00
2023-03-11T05:40:05.224Z,0.00
2023-03-11T05:41:04.277Z,0.00
2023-03-11T05:42:05.366Z,0.00
2023-03-11T05:43:05.137Z,0.00
2023-03-11T05:44:04.972Z,0.00
2023-03-11T05:45:23.789Z,0.00
2023-03-11T05:46:05.089Z,0.00
2023-03-11T05:47:04.307Z,0.00
2023-03-11T05:48:05.120Z,0.00
2023-03-11T05:49:04.928Z,0.00
2023-03-11T05:50:05.190Z,0.00
2023-03-11T05:51:04.519Z,0.00
2023-03-11T05:52:05.329Z,0.00
2023-03-11T05:53:04.999Z,0.00
2023-03-11T05:54:04.913Z,0.00
2023-03-11T05:55:23.756Z,0.00
2023-03-11T05:56:04.299Z,0.00
2023-03-11T05:57:04.585Z,0.00
2023-03-11T05:58:03.471Z,0.00
2023-03-11T05:59:04.321Z,0.00
2023-03-11T06:00:04.458Z,0.00
2023-03-11T06:01:05.188Z,0.00
2023-03-11T06:02:04.946Z,5.62
2023-03-11T06:03:04.713Z,5.62
2023-03-11T06:04:05.028Z,5.62
2023-03-11T06:05:24.056Z,5.62
2023-03-11T06:06:04.710Z,5.62
2023-03-11T06:07:04.434Z,5.62
2023-03-11T06:08:04.267Z,5.62
2023-03-11T06:09:04.504Z,5.62
2023-03-11T06:10:03.361Z,5.62
2023-03-11T06:11:04.508Z,11.25
2023-03-11T06:12:03.422Z,11.25
2023-03-11T06:13:05.082Z,11.25
2023-03-11T06:14:04.339Z,11.25
2023-03-11T06:15:23.717Z,11.25
2023-03-11T06:16:04.470Z,16.88
2023-03-11T06:17:03.307Z,16.88
2023-03-11T06:18:04.917Z,16.88
2023-03-11T06:19:03.535Z,16.88
2023-03-11T06:20:03.407Z,16.88
2023-03-11T06:21:04.079Z,22.50
2023-03-11T06:22:03.438Z,22.50
2023-03-11T06:23:04.635Z,22.50
2023-03-11T06:24:03.529Z,22.50
2023-03-11T06:25:24.690Z,22.50
2023-03-11T06:26:03.575Z,22.50
2023-03-11T06:27:03.254Z,28.12
2023-03-11T06:28:03.547Z,28.12
2023-03-11T06:29:03.314Z,28.12
2023-03-11T06:30:03.074Z,28.12
2023-03-11T06:31:03.317Z,28.12
2023-03-11T06:32:03.094Z,28.12
2023-03-11T06:33:03.335Z,33.75
2023-03-11T06:34:03.122Z,33.75
2023-03-11T06:35:24.836Z,33.75
2023-03-11T06:36:03.176Z,39.38
2023-03-11T06:37:03.387Z,39.38
2023-03-11T06:38:03.164Z,39.38
2023-03-11T06:39:02.910Z,45.00
2023-03-11T06:40:03.186Z,45.00
2023-03-11T06:41:02.935Z,45.00
2023-03-11T06:42:03.630Z,45.00
2023-03-11T06:43:02.965Z,50.62
2023-03-11T06:44:03.232Z,50.62
2023-03-11T06:45:24.454Z,61.88
2023-03-11T06:46:02.431Z,67.50
2023-03-11T06:47:03.114Z,73.12
2023-03-11T06:48:02.876Z,84.38
2023-03-11T06:49:03.097Z,90.00
2023-03-11T06:50:02.864Z,90.00
2023-03-11T06:51:03.123Z,101.25
2023-03-11T06:52:02.845Z,101.25
2023-03-11T06:53:03.090Z,112.50
2023-03-11T06:54:02.842Z,129.38
2023-03-11T06:55:23.851Z,140.62
2023-03-11T06:56:03.212Z,157.50
2023-03-11T06:57:03.002Z,185.62
2023-03-11T06:58:02.785Z,168.75
2023-03-11T06:59:03.047Z,196.88
2023-03-11T07:00:02.810Z,191.25
2023-03-11T07:01:03.106Z,213.75
2023-03-11T07:02:02.823Z,225.00
2023-03-11T07:03:03.062Z,241.88
2023-03-11T07:04:02.896Z,298.12
2023-03-11T07:05:24.555Z,331.88
2023-03-11T07:06:04.942Z,348.75
2023-03-11T07:07:03.092Z,292.50
2023-03-11T07:08:02.883Z,208.12
2023-03-11T07:09:03.112Z,146.25
2023-03-11T07:10:02.893Z,95.62
2023-03-11T07:11:02.633Z,90.00
2023-03-11T07:12:03.563Z,90.00
2023-03-11T07:13:02.633Z,90.00
2023-03-11T07:14:02.889Z,101.25
2023-03-11T07:15:22.685Z,101.25
2023-03-11T07:16:03.969Z,101.25
2023-03-11T07:17:02.823Z,95.62
2023-03-11T07:18:02.599Z,90.00
2023-03-11T07:19:02.851Z,90.00
2023-03-11T07:20:02.599Z,90.00
2023-03-11T07:21:02.882Z,95.62
2023-03-11T07:22:02.611Z,106.88
2023-03-11T07:23:02.868Z,106.88
2023-03-11T07:24:02.614Z,118.12
2023-03-11T07:25:22.916Z,129.38
2023-03-11T07:26:02.632Z,135.00
2023-03-11T07:27:02.935Z,129.38
2023-03-11T07:28:02.658Z,123.75
2023-03-11T07:29:02.420Z,140.62
2023-03-11T07:30:02.679Z,225.00
2023-03-11T07:31:02.435Z,298.12
2023-03-11T07:32:02.752Z,348.75
2023-03-11T07:33:02.438Z,348.75
2023-03-11T07:34:02.731Z,331.88
2023-03-11T07:35:22.506Z,241.88
2023-03-11T07:36:02.770Z,241.88
2023-03-11T07:37:02.510Z,253.12
2023-03-11T07:38:02.729Z,247.50
2023-03-11T07:39:04.146Z,236.25
2023-03-11T07:40:02.756Z,258.75
2023-03-11T07:41:02.525Z,264.38
2023-03-11T07:42:02.785Z,292.50
2023-03-11T07:43:02.538Z,292.50
2023-03-11T07:44:02.325Z,275.62
2023-03-11T07:45:22.590Z,281.25
2023-03-11T07:46:02.417Z,247.50
2023-03-11T07:47:02.590Z,275.62
2023-03-11T07:48:02.329Z,286.88
2023-03-11T07:49:02.606Z,343.12
2023-03-11T07:50:02.364Z,444.38
2023-03-11T07:51:02.632Z,461.25
2023-03-11T07:52:02.424Z,354.38
2023-03-11T07:53:02.679Z,360.00
2023-03-11T07:54:02.422Z,410.62
2023-03-11T07:55:22.671Z,376.88
2023-03-11T07:56:02.403Z,337.50
2023-03-11T07:57:02.177Z,354.38
2023-03-11T07:58:02.426Z,292.50
2023-03-11T07:59:02.178Z,315.00
2023-03-11T08:00:02.437Z,427.50
2023-03-11T08:01:02.190Z,455.62
2023-03-11T08:02:02.457Z,376.88
2023-03-11T08:03:02.193Z,376.88
2023-03-11T08:04:02.432Z,478.12
2023-03-11T08:05:22.225Z,483.75
2023-03-11T08:06:02.450Z,523.12
2023-03-11T08:07:03.748Z,759.38
2023-03-11T08:08:03.641Z,860.62
2023-03-11T08:09:03.465Z,714.38
2023-03-11T08:10:03.718Z,433.12
2023-03-11T08:11:03.624Z,495.00
2023-03-11T08:12:02.870Z,613.12
2023-03-11T08:13:03.282Z,630.00
2023-03-11T08:14:05.568Z,534.38
2023-03-11T08:15:22.414Z,675.00
2023-03-11T08:16:03.194Z,871.88
2023-03-11T08:17:03.523Z,883.12
2023-03-11T08:18:03.337Z,956.25
2023-03-11T08:19:02.848Z,748.12
2023-03-11T08:20:03.477Z,770.62
2023-03-11T08:21:03.310Z,1406.25
2023-03-11T08:22:03.148Z,1794.38
2023-03-11T08:23:02.883Z,1856.25
2023-03-11T08:24:06.562Z,1918.12
2023-03-11T08:25:22.219Z,1125.00
2023-03-11T08:26:03.505Z,956.25
2023-03-11T08:27:03.799Z,1018.12
2023-03-11T08:28:03.599Z,1198.12
2023-03-11T08:29:02.898Z,1018.12
2023-03-11T08:30:03.663Z,855.00
2023-03-11T08:31:03.579Z,961.88
2023-03-11T08:32:03.335Z,843.75
2023-03-11T08:33:03.150Z,1012.50
2023-03-11T08:34:02.699Z,1158.75
2023-03-11T08:35:23.727Z,1198.12
2023-03-11T08:36:02.123Z,1192.50
2023-03-11T08:37:01.765Z,1282.50
2023-03-11T08:38:02.041Z,1310.62
2023-03-11T08:39:01.938Z,1136.25
2023-03-11T08:40:02.054Z,736.88
2023-03-11T08:41:01.811Z,838.12
2023-03-11T08:42:02.072Z,646.88
2023-03-11T08:43:01.856Z,753.75
2023-03-11T08:44:02.086Z,877.50
2023-03-11T08:45:21.885Z,933.75
2023-03-11T08:46:02.151Z,691.88
2023-03-11T08:47:01.881Z,658.12
2023-03-11T08:48:01.603Z,669.38
2023-03-11T08:49:01.862Z,781.88
2023-03-11T08:50:01.620Z,798.75
2023-03-11T08:51:01.878Z,843.75
2023-03-11T08:52:01.642Z,748.12
2023-03-11T08:53:01.955Z,804.38
2023-03-11T08:54:01.700Z,1068.75
2023-03-11T08:55:21.961Z,933.75
2023-03-11T08:56:01.698Z,905.62
2023-03-11T08:57:01.999Z,1012.50
2023-03-11T08:58:03.200Z,1203.75
2023-03-11T08:59:02.004Z,950.62
2023-03-11T09:00:01.773Z,967.50
2023-03-11T09:01:01.556Z,1271.25
2023-03-11T09:02:01.806Z,1456.88
2023-03-11T09:03:01.655Z,1462.50
2023-03-11T09:04:01.852Z,1265.62
2023-03-11T09:05:22.590Z,1113.75
2023-03-11T09:06:02.022Z,1237.50
2023-03-11T09:07:01.644Z,1186.88
2023-03-11T09:08:03.341Z,928.12
2023-03-11T09:09:01.680Z,1243.12
2023-03-11T09:10:01.407Z,1237.50
2023-03-11T09:11:01.683Z,1299.38
2023-03-11T09:12:01.445Z,1473.75
2023-03-11T09:13:01.719Z,1023.75
2023-03-11T09:14:01.468Z,1231.88
2023-03-11T09:15:21.770Z,1338.75
2023-03-11T09:16:01.549Z,1175.62
2023-03-11T09:17:01.755Z,1288.12
2023-03-11T09:18:02.542Z,1012.50
2023-03-11T09:19:01.765Z,1299.38
2023-03-11T09:20:01.544Z,1479.38
2023-03-11T09:21:01.277Z,1715.62
2023-03-11T09:22:01.524Z,1760.62
2023-03-11T09:23:01.286Z,1580.62
2023-03-11T09:24:01.563Z,1507.50
2023-03-11T09:25:21.364Z,1856.25
2023-03-11T09:26:01.598Z,2030.62
2023-03-11T09:30:09.414Z,1687.50
2023-03-11T09:30:14.221Z,1636.88
2023-03-11T09:31:15.138Z,1766.25
2023-03-11T09:32:26.315Z,1884.38
2023-03-11T09:33:15.055Z,1563.75
2023-03-11T09:34:16.205Z,1372.50
2023-03-11T09:35:15.061Z,1260.00
2023-03-11T09:36:14.864Z,1288.12
2023-03-11T09:37:35.096Z,1760.62
2023-03-11T09:43:52.421Z,1456.88
2023-03-11T09:43:58.779Z,1316.25
2023-03-11T09:44:59.593Z,1080.00
2023-03-11T09:45:59.439Z,1096.88
2023-03-11T09:46:59.279Z,1372.50
2023-03-11T09:47:59.134Z,1524.38
2023-03-11T09:48:58.428Z,1344.38
2023-03-11T09:49:59.193Z,1417.50
2023-03-11T09:50:59.507Z,1406.25
2023-03-11T09:52:20.321Z,1946.25
2023-03-11T09:54:04.418Z,1873.12
2023-03-11T09:54:10.190Z,1856.25
2023-03-11T09:55:55.218Z,1822.50
2023-03-11T09:56:20.841Z,1794.38
2023-03-11T09:57:10.095Z,1693.12
2023-03-11T09:59:41.360Z,1788.75
2023-03-11T09:59:46.212Z,1738.12
2023-03-11T10:00:46.975Z,1530.00
2023-03-11T10:03:30.698Z,1771.88
2023-03-11T10:03:57.489Z,1490.62
2023-03-11T10:04:36.263Z,1372.50
2023-03-11T10:05:37.504Z,1035.00
2023-03-11T10:06:36.242Z,866.25
2023-03-11T10:07:35.999Z,675.00
2023-03-11T10:08:36.276Z,613.12
2023-03-11T10:09:37.598Z,579.38
2023-03-11T10:10:36.288Z,551.25
2023-03-11T10:11:36.063Z,506.25
2023-03-11T10:12:36.316Z,455.62
2023-03-11T10:13:57.637Z,405.00
2023-03-11T10:14:35.935Z,399.38
2023-03-11T10:15:38.385Z,382.50
2023-03-11T10:16:35.981Z,365.62
2023-03-11T10:17:36.216Z,371.25
2023-03-11T10:18:35.986Z,365.62
2023-03-11T10:19:36.233Z,405.00
2023-03-11T10:20:36.016Z,410.62
2023-03-11T10:21:36.262Z,410.62
2023-03-11T10:22:36.006Z,376.88
2023-03-11T10:23:56.963Z,326.25
2023-03-11T10:24:36.067Z,315.00
2023-03-11T10:25:35.845Z,298.12
2023-03-11T10:26:36.084Z,275.62
2023-03-11T10:27:35.861Z,247.50
2023-03-11T10:28:36.120Z,219.38
2023-03-11T10:29:35.922Z,202.50
2023-03-11T10:30:36.198Z,202.50
2023-03-11T10:31:35.973Z,202.50
2023-03-11T10:32:35.770Z,202.50
2023-03-11T10:33:57.463Z,202.50
2023-03-11T10:34:35.798Z,202.50
2023-03-11T10:35:36.109Z,196.88
2023-03-11T10:36:35.836Z,202.50
2023-03-11T10:37:48.797Z,219.38
2023-03-11T10:38:36.836Z,241.88
2023-03-11T10:39:36.101Z,298.12
2023-03-11T10:40:35.856Z,393.75
2023-03-11T10:41:36.109Z,286.88
2023-03-11T10:42:35.869Z,455.62
2023-03-11T10:43:57.144Z,680.62
2023-03-11T10:44:35.981Z,995.62
2023-03-11T10:45:35.802Z,1080.00
2023-03-11T10:46:35.995Z,1113.75
2023-03-11T10:47:47.261Z,1749.38
2023-03-11T10:48:38.519Z,1771.88
2023-03-11T10:49:35.789Z,1068.75
2023-03-11T10:50:36.658Z,1608.75
2023-03-11T10:51:35.795Z,798.75
2023-03-11T10:52:35.538Z,1276.88
2023-03-11T10:53:56.458Z,1389.38
2023-03-11T10:54:35.622Z,905.62
2023-03-11T10:55:35.913Z,1074.38
2023-03-11T10:56:35.665Z,945.00
2023-03-11T10:57:35.457Z,1085.62
2023-03-11T10:58:36.684Z,1681.88
2023-03-11T10:59:47.396Z,1743.75
2023-03-11T11:00:35.707Z,1170.00
2023-03-11T11:01:50.439Z,1805.62
2023-03-11T11:02:35.733Z,1305.00
2023-03-11T11:03:57.028Z,697.50
2023-03-11T11:04:35.840Z,618.75
2023-03-11T11:05:35.584Z,540.00
2023-03-11T11:06:35.821Z,545.62
2023-03-11T11:07:35.649Z,478.12
2023-03-11T11:08:35.324Z,410.62
2023-03-11T11:09:35.622Z,343.12
2023-03-11T11:10:35.344Z,309.38
2023-03-11T11:11:35.656Z,286.88
2023-03-11T11:12:35.354Z,292.50
2023-03-11T11:13:57.164Z,331.88
2023-03-11T11:14:35.461Z,376.88
2023-03-11T11:15:35.710Z,500.62
2023-03-11T11:16:35.626Z,646.88
2023-03-11T11:17:35.256Z,832.50
2023-03-11T11:18:35.552Z,916.88
2023-03-11T11:19:35.300Z,562.50
2023-03-11T11:20:35.568Z,416.25
2023-03-11T11:21:35.347Z,348.75
2023-03-11T11:22:35.607Z,309.38
2023-03-11T11:23:56.009Z,320.62
2023-03-11T11:24:35.194Z,286.88
2023-03-11T11:25:35.524Z,253.12
2023-03-11T11:26:35.218Z,241.88
2023-03-11T11:27:35.456Z,241.88
2023-03-11T11:28:35.277Z,225.00
2023-03-11T11:29:35.494Z,213.75
2023-03-11T11:30:35.276Z,202.50
2023-03-11T11:31:35.513Z,196.88
2023-03-11T11:32:35.278Z,191.25
2023-03-11T11:33:57.016Z,202.50
2023-03-11T11:34:35.362Z,219.38
2023-03-11T11:35:35.092Z,247.50
2023-03-11T11:36:35.351Z,326.25
2023-03-11T11:37:35.108Z,517.50
2023-03-11T11:38:35.363Z,686.25
2023-03-11T11:39:35.127Z,630.00
2023-03-11T11:40:35.433Z,568.12
2023-03-11T11:41:35.146Z,658.12
2023-03-11T11:42:35.390Z,579.38
2023-03-11T11:43:56.706Z,433.12
2023-03-11T11:44:35.026Z,410.62
2023-03-11T11:45:35.262Z,393.75
2023-03-11T11:46:35.030Z,489.38
2023-03-11T11:47:35.265Z,556.88
2023-03-11T11:48:35.028Z,691.88
2023-03-11T11:49:35.280Z,618.75
2023-03-11T11:50:35.042Z,708.75
2023-03-11T11:51:35.277Z,961.88
2023-03-11T11:52:35.050Z,1248.75
2023-03-11T11:53:56.827Z,916.88
2023-03-11T11:54:35.158Z,995.62
2023-03-11T11:55:34.887Z,720.00
2023-03-11T11:56:35.155Z,466.88
2023-03-11T11:57:34.896Z,433.12
2023-03-11T11:58:35.150Z,399.38
2023-03-11T11:59:34.918Z,360.00
2023-03-11T12:00:35.177Z,427.50
2023-03-11T12:01:34.939Z,787.50
2023-03-11T12:05:11.702Z,1805.62
2023-03-11T12:05:37.476Z,1580.62
2023-03-11T12:06:17.195Z,1321.88
2023-03-11T12:07:17.461Z,1333.12
2023-03-11T12:08:17.232Z,1299.38
2023-03-11T12:09:16.973Z,1119.38
2023-03-11T12:10:23.253Z,1383.75
2023-03-11T12:11:18.018Z,1276.88
2023-03-11T12:12:17.385Z,1310.62
2023-03-11T12:13:17.119Z,1260.00
2023-03-11T12:14:17.403Z,1096.88
2023-03-11T12:15:37.198Z,1479.38
2023-03-11T12:16:17.069Z,1603.12
2023-03-11T12:17:17.148Z,1456.88
2023-03-11T12:18:16.915Z,1473.75
2023-03-11T12:19:17.182Z,1631.25
2023-03-11T12:20:16.957Z,1321.88
2023-03-11T12:21:17.199Z,1198.12
2023-03-11T12:22:28.955Z,1546.88
2023-03-11T12:23:22.725Z,1411.88
2023-03-11T12:24:16.994Z,1395.00
2023-03-11T12:25:37.941Z,1338.75
2023-03-11T12:26:17.030Z,1265.62
2023-03-11T12:27:17.266Z,1046.25
2023-03-11T12:28:17.054Z,883.12
2023-03-11T12:29:16.813Z,804.38
2023-03-11T12:30:17.065Z,1147.50
2023-03-11T12:31:16.822Z,1411.88
2023-03-11T12:32:17.108Z,1057.50
2023-03-11T12:33:16.807Z,978.75
2023-03-11T12:34:17.077Z,883.12
2023-03-11T12:35:38.413Z,1006.88
2023-03-11T12:36:17.181Z,1001.25
2023-03-11T12:37:16.915Z,933.75
2023-03-11T12:38:16.676Z,1102.50
2023-03-11T12:39:16.960Z,1141.88
2023-03-11T12:40:16.753Z,933.75
2023-03-11T12:41:16.972Z,742.50
2023-03-11T12:42:16.770Z,742.50
2023-03-11T12:43:17.017Z,646.88
2023-03-11T12:44:16.813Z,1400.62
2023-03-11T12:45:53.527Z,1620.00
2023-03-11T12:46:16.980Z,1501.88
2023-03-11T12:47:16.592Z,1074.38
2023-03-11T12:48:16.859Z,759.38
2023-03-11T12:49:16.612Z,742.50
2023-03-11T12:50:16.867Z,517.50
2023-03-11T12:51:16.622Z,315.00
2023-03-11T12:52:16.903Z,236.25
2023-03-11T12:53:16.627Z,286.88
2023-03-11T12:54:16.876Z,517.50
2023-03-11T12:55:38.136Z,1012.50
2023-03-11T12:56:16.946Z,1327.50
2023-03-11T12:57:16.712Z,753.75
2023-03-11T12:58:16.495Z,466.88
2023-03-11T12:59:16.720Z,489.38